Latest Weather Observations for Edithburgh

IDS60801

Issued at 8:35 pm CST Thursday 24 April 2014 (issued every 30 minutes, with the page automatically refreshed every 10 minutes)

About weather observations | Map of weather stations | Latest weather observations for SA | Other Formats
Station Details ID: 022046 Name: EDITHBURGH Lat: -35.11 Lon: 137.74 Height: 6.0 m
Data from the previous 72 hours. | See also: Recent months at Edithburgh
Date/Time
CST
Temp
°C
App
Temp
°C
Dew
Point
Rel
Hum
%
Delta-T
°C
Wind Press
QNH
hPa
Press
MSL
hPa
Rain
since 9 am
mm
Dir
 
Spd
km/h
Gust
km/h
Spd
kts
Gust
kts
24/08:30pm 14.5 13.5 14.5 100 0.0 ESE 13 19 7 10 1019.5 1019.5 0.0
24/08:00pm 15.1 13.8 14.9 99 0.1 ESE 15 20 8 11 1019.3 - 0.0
24/07:30pm 15.3 13.8 15.3 100 0.0 SE 17 26 9 14 1018.9 1018.9 0.0
24/07:00pm 15.2 14.1 15.2 100 0.0 SE 15 20 8 11 1018.9 - 0.0
24/06:30pm 15.1 14.3 15.1 100 0.0 SSE 13 19 7 10 1018.8 1018.8 0.0
24/06:00pm 15.1 14.3 15.1 100 0.0 SSE 13 19 7 10 1018.7 1018.7 0.0
24/05:30pm 15.7 15.1 15.7 100 0.0 SSE 13 19 7 10 1018.5 1018.5 0.0
24/05:00pm 16.3 15.9 16.3 100 0.0 SSE 13 19 7 10 1018.5 - 0.0
24/04:30pm 16.8 15.8 16.6 99 0.1 SSE 17 20 9 11 1018.3 1018.3 0.0
24/04:00pm 17.2 16.4 17.2 100 0.0 SSE 17 20 9 11 1018.3 - 0.0
24/03:30pm 17.4 16.7 17.4 100 0.0 SSE 17 20 9 11 1018.3 1018.3 0.0
24/03:00pm 17.7 17.1 17.5 99 0.1 S 17 22 9 12 1018.4 1018.4 0.0
24/02:30pm 17.5 16.5 17.5 100 0.0 SSE 19 24 10 13 1018.3 1018.3 0.0
24/02:00pm 17.8 16.9 17.8 100 0.0 SSE 19 26 10 14 1018.4 - 0.0
24/01:30pm 17.9 17.4 17.9 100 0.0 SSE 17 22 9 12 1018.5 1018.5 0.0
24/01:00pm 18.1 17.7 18.1 100 0.0 S 17 24 9 13 1018.7 - 0.0
24/12:30pm 18.1 17.2 18.1 100 0.0 S 20 24 11 13 1018.8 1018.8 0.0
24/12:00pm 18.1 17.2 18.1 100 0.0 SSE 20 28 11 15 1019.1 1019.1 0.0
24/11:30am 18.2 16.9 18.2 100 0.0 S 22 30 12 16 1019.3 1019.3 0.0
24/11:00am 18.0 16.6 18.0 100 0.0 S 22 28 12 15 1019.3 - 0.0
24/10:30am 18.4 16.7 18.2 99 0.1 S 24 30 13 16 1019.2 1019.2 0.0
24/10:00am 17.6 15.6 17.4 99 0.1 S 24 32 13 17 1018.9 - 0.0
24/09:30am 16.3 14.2 16.3 100 0.0 S 22 30 12 16 1019.0 1019.0 0.0
24/09:00am 17.1 14.6 17.1 100 0.0 S 26 33 14 18 1018.7 1018.7 1.0
24/08:30am 16.7 14.3 16.4 98 0.2 S 24 33 13 18 1018.4 1018.4 1.0
24/08:00am 16.3 13.5 14.4 88 1.1 S 22 30 12 16 1017.9 - 1.0
24/07:30am 16.2 14.0 13.3 83 1.6 S 17 24 9 13 1017.3 1017.3 1.0
24/07:00am 15.9 13.2 13.4 85 1.4 SSW 20 30 11 16 1017.0 - 1.0
24/06:30am 15.9 13.0 13.0 83 1.6 SSW 20 28 11 15 1016.7 1016.7 1.0
24/06:00am 15.7 13.3 13.9 89 1.0 SW 19 26 10 14 1016.3 1016.3 1.0
24/05:30am 14.3 14.1 13.6 96 0.4 W 7 13 4 7 1015.9 1015.9 1.0
24/05:00am 14.2 12.0 13.3 94 0.5 WNW 17 24 9 13 1015.5 - 1.0
24/04:30am 13.4 11.7 12.5 94 0.5 WNW 13 19 7 10 1015.2 1015.2 1.0
24/04:00am 13.6 10.9 12.9 95 0.4 W 19 22 10 12 1014.9 - 1.0
24/03:30am 13.0 11.3 12.4 96 0.3 WNW 13 17 7 9 1014.8 1014.8 1.0
24/03:00am 13.1 11.4 12.5 96 0.3 WNW 13 15 7 8 1015.0 1015.0 1.0
24/02:30am 13.5 11.5 12.8 95 0.4 WNW 15 17 8 9 1014.9 1014.9 1.0
24/02:00am 13.3 11.6 12.6 95 0.4 WNW 13 17 7 9 1015.1 - 1.0
24/01:30am 13.4 11.0 12.7 95 0.4 WNW 17 19 9 10 1015.2 1015.2 1.0
24/01:00am 13.5 12.2 12.4 93 0.6 WNW 11 15 6 8 1015.3 - 1.0
24/12:30am 14.3 12.5 13.2 93 0.6 W 15 19 8 10 1015.3 1015.3 1.0
24/12:00am 15.0 13.5 14.1 94 0.5 W 15 24 8 13 1015.1 1015.1 1.0
 
Date/Time
CST
Temp
°C
App
Temp
°C
Dew
Point
Rel
Hum
%
Delta-T
°C
Wind Press
QNH
hPa
Press
MSL
hPa
Rain
since 9 am
mm
Dir
 
Spd
km/h
Gust
km/h
Spd
kts
Gust
kts
23/11:30pm 15.6 14.1 14.2 91 0.8 W 15 22 8 12 1015.5 1015.5 0.0
23/11:00pm 15.1 14.8 13.3 89 1.0 W 7 9 4 5 1015.5 - 0.0
23/10:30pm 15.3 14.6 13.1 87 1.2 W 9 13 5 7 1015.5 1015.5 0.0
23/10:00pm 15.6 13.1 10.9 73 2.5 WNW 15 20 8 11 1015.5 - 0.0
23/09:30pm 14.3 11.5 10.1 76 2.2 NW 15 17 8 9 1015.3 1015.3 0.0
23/09:00pm 14.0 11.6 10.1 77 2.0 NW 13 17 7 9 1015.1 1015.1 0.0
23/08:30pm 13.4 11.9 10.5 82 1.5 NW 9 11 5 6 1015.0 1015.0 0.0
23/08:00pm 13.1 11.7 9.4 78 1.9 NW 7 7 4 4 1014.9 - 0.0
23/07:30pm 13.5 11.7 9.4 76 2.1 NW 9 9 5 5 1014.9 1014.9 0.0
23/07:00pm 13.9 12.0 9.2 73 2.4 NNW 9 11 5 6 1014.8 - 0.0
23/06:30pm 14.3 12.1 9.2 71 2.6 NNW 11 13 6 7 1014.6 1014.6 0.0
23/06:00pm 15.5 12.9 9.3 66 3.2 NW 13 17 7 9 1014.5 1014.5 0.0
23/05:30pm 17.3 13.9 9.0 58 4.3 NW 17 20 9 11 1014.4 1014.4 0.0
23/05:00pm 18.9 15.2 9.4 54 5.0 NW 19 24 10 13 1014.3 - 0.0
23/04:30pm 18.4 16.7 11.2 63 3.9 NNE 11 17 6 9 1014.3 1014.3 0.0
23/04:00pm 18.4 16.3 11.0 62 4.0 NNE 13 17 7 9 1014.2 - 0.0
23/03:30pm 18.7 16.6 11.0 61 4.2 NE 13 20 7 11 1014.2 1014.2 0.0
23/03:00pm 18.7 16.2 11.0 61 4.2 NE 15 20 8 11 1014.2 1014.2 0.0
23/02:30pm 18.6 15.5 10.2 58 4.5 NE 17 20 9 11 1014.2 1014.2 0.0
23/02:00pm 18.7 15.9 10.1 57 4.6 ENE 15 17 8 9 1014.7 - 0.0
23/01:30pm 17.8 15.4 10.1 60 4.1 E 13 17 7 9 1015.0 1015.0 0.0
23/01:00pm 18.8 16.0 10.0 56 4.7 E 15 20 8 11 1015.4 - 0.0
23/12:30pm 18.3 15.9 10.0 58 4.4 ENE 13 19 7 10 1016.2 1016.2 0.0
23/12:00pm 18.3 15.8 9.8 57 4.5 ENE 13 15 7 8 1016.8 1016.8 0.0
23/11:30am 18.4 16.1 10.6 60 4.2 E 13 19 7 10 1017.4 1017.4 0.0
23/11:00am 18.2 17.1 9.9 58 4.4 S 6 11 3 6 1017.7 - 0.0
23/10:30am 19.5 17.9 7.8 46 6.0 WNW 6 15 3 8 1017.9 1017.9 0.0
23/10:00am 18.8 16.9 7.6 48 5.7 W 7 15 4 8 1018.1 - 0.0
23/09:30am 17.8 15.8 7.2 50 5.3 NW 7 15 4 8 1018.3 1018.3 0.0
23/09:00am 16.8 15.4 9.0 60 4.0 NNW 6 11 3 6 1018.3 1018.3 0.0
23/08:30am 14.0 13.1 11.2 83 1.5 NW 7 9 4 5 1018.2 1018.2 0.0
23/08:00am 11.1 10.0 10.1 94 0.5 WNW 6 7 3 4 1018.1 - 0.0
23/07:30am 9.5 7.5 8.7 95 0.4 NW 9 9 5 5 1017.6 1017.6 0.0
23/07:00am 7.8 5.8 6.9 94 0.4 NW 7 9 4 5 1017.4 - 0.0
23/06:30am 7.4 4.5 6.5 94 0.4 NW 11 13 6 7 1017.2 1017.2 0.0
23/06:00am 7.8 5.4 6.9 94 0.4 NW 9 11 5 6 1017.3 1017.3 0.0
23/05:30am 7.4 4.9 6.5 94 0.4 NW 9 9 5 5 1017.3 1017.3 0.0
23/05:00am 7.7 5.7 7.1 96 0.3 WNW 7 7 4 4 1017.1 - 0.0
23/04:30am 8.3 6.5 7.2 93 0.5 WNW 6 7 3 4 1017.2 1017.2 0.0
23/04:00am 8.8 7.2 8.0 95 0.4 WNW 6 7 3 4 1017.3 - 0.0
23/03:30am 8.6 6.6 7.1 90 0.7 WNW 7 9 4 5 1017.3 1017.3 0.0
23/03:00am 8.4 7.7 7.1 91 0.6 CALM 0 2 0 1 1017.5 1017.5 0.0
23/02:30am 8.3 7.6 6.8 90 0.7 CALM 0 0 0 0 1017.8 1017.8 0.0
23/02:00am 9.5 8.8 6.9 84 1.2 CALM 0 0 0 0 1017.9 - 0.0
23/01:30am 9.3 8.7 7.2 87 1.0 CALM 0 0 0 0 1018.1 1018.1 0.0
23/01:00am 11.0 10.6 8.1 82 1.4 CALM 0 0 0 0 1018.5 - 0.0
23/12:30am 13.2 13.2 9.7 79 1.8 CALM 0 4 0 2 1018.7 1018.7 0.0
23/12:00am 13.3 12.9 9.6 78 1.9 SE 2 6 1 3 1018.8 1018.8 0.0
 
Date/Time
CST
Temp
°C
App
Temp
°C
Dew
Point
Rel
Hum
%
Delta-T
°C
Wind Press
QNH
hPa
Press
MSL
hPa
Rain
since 9 am
mm
Dir
 
Spd
km/h
Gust
km/h
Spd
kts
Gust
kts
22/11:30pm 14.0 12.8 9.5 74 2.3 SE 6 6 3 3 1018.8 1018.8 0.0
22/11:00pm 14.8 13.3 9.1 68 2.9 SSE 7 11 4 6 1019.2 - 0.0
22/10:30pm 14.8 13.4 9.5 70 2.7 SSE 7 11 4 6 1019.5 1019.5 0.0
22/10:00pm 16.0 14.2 9.6 66 3.3 SSE 9 13 5 7 1019.4 - 0.0
22/09:30pm 15.6 13.6 10.3 70 2.8 SSE 11 17 6 9 1019.2 1019.2 0.0
22/09:00pm 15.7 13.3 9.9 68 3.0 SSE 13 17 7 9 1019.0 1019.0 0.0
22/08:30pm 15.7 13.6 9.9 68 3.0 SSE 11 13 6 7 1019.1 1019.1 0.0
22/08:00pm 16.4 14.3 9.9 65 3.4 S 11 19 6 10 1019.3 - 0.0
22/07:30pm 16.4 13.4 10.5 68 3.1 SSE 17 24 9 13 1019.0 1019.0 0.0
22/07:00pm 16.8 13.9 9.7 63 3.7 SSE 15 20 8 11 1018.7 - 0.0
22/06:30pm 16.6 14.4 9.5 63 3.7 SSE 11 19 6 10 1018.5 1018.5 0.0
22/06:00pm 16.6 14.3 9.0 61 3.9 S 11 17 6 9 1018.3 1018.3 0.0
22/05:30pm 16.6 14.6 8.8 60 4.0 S 9 11 5 6 1018.1 1018.1 0.0
22/05:00pm 16.8 14.3 8.1 56 4.4 S 11 15 6 8 1018.0 - 0.0
22/04:30pm 17.5 15.1 8.8 56 4.5 S 11 17 6 9 1017.9 1017.9 0.0
22/04:00pm 17.7 15.3 8.6 55 4.7 S 11 13 6 7 1017.7 - 0.0
22/03:30pm 18.4 15.8 9.2 55 4.8 S 13 19 7 10 1017.6 1017.6 0.0
22/03:00pm 18.4 15.5 8.3 51 5.2 S 13 19 7 10 1017.6 1017.6 0.0
22/02:30pm 18.9 16.3 7.7 48 5.7 S 11 19 6 10 1017.5 1017.5 0.0
22/02:00pm 18.7 16.0 7.4 47 5.7 S 11 19 6 10 1017.5 - 0.0
22/01:30pm 19.1 16.2 8.0 48 5.7 S 13 19 7 10 1017.4 1017.4 0.0
22/01:00pm 18.3 14.7 8.4 52 5.1 S 17 22 9 12 1017.6 - 0.0
22/12:30pm 19.1 15.8 8.2 49 5.6 SSW 15 24 8 13 1017.8 1017.8 0.0
22/12:00pm 19.2 16.1 8.8 51 5.4 SSW 15 20 8 11 1018.0 1018.0 0.0
22/11:30am 18.7 15.4 8.2 50 5.4 S 15 22 8 12 1018.2 1018.2 0.0
22/11:00am 18.2 14.8 9.0 55 4.8 SSW 17 24 9 13 1018.3 - 0.0
22/10:30am 18.0 14.3 9.6 58 4.4 SSW 19 26 10 14 1018.2 1018.2 0.0
22/10:00am 18.5 14.3 9.6 56 4.7 SSW 22 30 12 16 1018.1 - 0.0
22/09:30am 18.2 14.4 9.2 55 4.7 S 19 26 10 14 1018.0 1018.0 0.0
22/09:00am 17.7 14.1 9.9 60 4.1 S 19 24 10 13 1017.7 1017.7 0.0
22/08:30am 17.0 13.2 9.7 62 3.8 SSW 20 28 11 15 1017.5 1017.5 0.0
22/08:00am 16.1 12.0 10.0 67 3.2 SSW 22 28 12 15 1016.9 - 0.0
22/07:30am 16.3 12.7 10.4 68 3.1 SSW 20 28 11 15 1016.5 1016.5 0.0
22/07:00am 15.7 11.7 10.4 71 2.8 SSW 22 32 12 17 1015.9 - 0.0
22/06:30am 15.7 11.3 10.4 71 2.8 SSW 24 33 13 18 1015.5 1015.5 0.0
22/06:00am 15.9 10.0 10.4 70 2.9 SSW 32 37 17 20 1015.0 1015.0 0.0
22/05:30am 16.1 11.3 11.7 75 2.4 SSW 28 35 15 19 1014.8 1014.8 0.0
22/05:00am 16.1 11.7 11.7 75 2.4 SSW 26 35 14 19 1014.4 - 0.0
22/04:30am 16.3 12.6 12.7 79 2.0 SSW 24 33 13 18 1014.2 1014.2 0.0
22/04:00am 16.4 13.0 12.6 78 2.1 SSW 22 30 12 16 1013.9 - 0.0
22/03:30am 16.2 12.9 12.8 80 1.9 SSW 22 30 12 16 1013.5 1013.5 0.0
22/03:00am 16.3 13.6 13.6 84 1.5 SSW 20 26 11 14 1013.1 1013.1 0.0
22/02:30am 16.7 13.5 14.2 85 1.4 SW 24 32 13 17 1013.7 1013.7 0.0
22/02:00am 16.9 15.2 14.6 86 1.3 S 17 22 9 12 1012.9 - 0.0
22/01:30am 17.6 15.4 15.0 85 1.5 S 20 24 11 13 1012.4 1012.4 0.0
22/01:00am 17.6 15.8 15.4 87 1.3 S 19 30 10 16 1012.6 - 0.0
22/12:30am 18.0 16.0 15.6 86 1.4 S 20 28 11 15 1012.0 1012.0 0.0
22/12:00am 18.8 18.8 17.2 90 1.0 SW 13 22 7 12 1012.1 1012.1 0.0
 
Date/Time
CST
Temp
°C
App
Temp
°C
Dew
Point
Rel
Hum
%
Delta-T
°C
Wind Press
QNH
hPa
Press
MSL
hPa
Rain
since 9 am
mm
Dir
 
Spd
km/h
Gust
km/h
Spd
kts
Gust
kts
21/11:30pm 18.8 15.5 13.9 73 2.8 SW 24 30 13 16 1012.0 1012.0 0.0
21/11:00pm 18.8 18.1 14.3 75 2.6 N 11 22 6 12 1010.9 - 0.0
21/10:30pm 18.1 17.9 14.8 81 1.9 N 9 15 5 8 1011.3 1011.3 0.0
21/10:00pm 18.6 20.1 14.6 77 2.3 CALM 0 2 0 1 1011.4 - 0.0
21/09:30pm 19.1 19.5 14.8 76 2.5 SW 6 9 3 5 1011.9 1011.9 0.0
21/09:00pm 19.3 18.7 14.7 74 2.7 WSW 11 15 6 8 1012.2 1012.2 0.0

Other Formats:

Comma delimited format used in spreadsheet applications
http://www.bom.gov.au/fwo/IDS60801/IDS60801.94809.axf

JavaScript Object Notation format (JSON) in row-major order
http://www.bom.gov.au/fwo/IDS60801/IDS60801.94809.json